Flight Track Log - Related Links

Times and Time Zones

All times are in EDT time to prevent confusion due to time zone crossing. See the ASQ5914 flight status page for this flight to view local times or setup timezone preferences in your user account.

Time Position Orientation Groundspeed Altitude Reporting Facility
EDT Latitude Longitude Course Direction KTS MPH feet Rate Location/Type
Fri 12:16:55 PM 39.8167 -104.7000 282° West 220 253 7,600  Level Denver TRACON
Fri 12:17:55 PM 39.8333 -104.8000 270° West 273 314 9,800 1,250 Climbing Denver TRACON
Fri 12:18:55 PM 39.8333 -104.9000 270° West 267 307 10,100 1,100 Climbing Denver TRACON
Fri 12:19:55 PM 39.8333 -105.0000 252° West 295 339 12,000 2,016 Climbing Denver TRACON
Fri 12:20:57 PM 39.8047 -105.1164 256° West 341 392 14,200 2,557 Climbing Denver Center
Fri 12:21:57 PM 39.7831 -105.2303 256° West 341 392 17,200 2,650 Climbing Denver Center
Fri 12:22:57 PM 39.7611 -105.3414 256° West 330 380 19,500 2,050 Climbing Denver Center
Fri 12:23:57 PM 39.7394 -105.4578 255° West 325 374 21,300 1,250 Climbing Denver Center
Fri 12:24:57 PM 39.7133 -105.5853 256° West 349 402 22,000 350 Climbing Denver Center
Fri 12:25:57 PM 39.6911 -105.6989 254° West 364 419 22,000  Level Denver Center
Fri 12:26:57 PM 39.6647 -105.8206 255° West 364 419 22,000  Level Denver Center
Fri 12:27:57 PM 39.6403 -105.9394 255° West 354 407 22,000  Level Denver Center
Fri 12:28:57 PM 39.6139 -106.0636 258° West 359 413 22,000  Level Denver Center
Fri 12:29:57 PM 39.5911 -106.2011 254° West 359 413 22,000  Level Denver Center
Fri 12:30:57 PM 39.5644 -106.3250 254° West 359 413 22,000  Level Denver Center
Fri 12:31:57 PM 39.5372 -106.4489 252° West 359 413 22,000  Level Denver Center
Fri 12:32:57 PM 39.5103 -106.5594 252° West 359 413 22,000  Level Denver Center
Fri 12:33:57 PM 39.4786 -106.6883 255° West 359 413 22,000  Level Denver Center
Fri 12:34:57 PM 39.4533 -106.8119 256° West 359 413 22,000  Level Denver Center
Fri 12:35:57 PM 39.4300 -106.9356 255° West 359 413 22,000  Level Denver Center
Fri 12:36:57 PM 39.4067 -107.0483 257° West 359 413 22,000  Level Denver Center
Fri 12:37:57 PM 39.3828 -107.1797 256° West 354 407 22,000  Level Denver Center
Fri 12:38:57 PM 39.3592 -107.3003 257° West 354 407 22,000  Level Denver Center
Fri 12:39:57 PM 39.3372 -107.4236 255° West 354 407 22,000  Level Denver Center
Fri 12:40:57 PM 39.3156 -107.5278 255° West 349 402 22,000 -200 Level Denver Center
Fri 12:41:57 PM 39.2914 -107.6428 256° West 344 396 21,600 -1,000 Descending Denver Center
Fri 12:42:57 PM 39.2672 -107.7658 256° West 330 380 20,000 -1,550 Descending Denver Center
Fri 12:43:57 PM 39.2450 -107.8781 255° West 330 380 18,500 -1,500 Descending Denver Center
Fri 12:44:57 PM 39.2250 -107.9769 256° West 325 374 17,000 -1,250 Descending Denver Center
Fri 12:45:57 PM 39.2069 -108.0728 256° West 300 345 16,000 -1,600 Descending Denver Center
Fri 12:46:57 PM 39.1889 -108.1664 248° West 257 296 13,800 -2,050 Descending Denver Center
Fri 12:47:57 PM 39.1628 -108.2514 222° Southwest 257 296 11,900 -1,100 Descending Denver Center
Fri 12:48:57 PM 39.1181 -108.3036 219° Southwest 246 283 11,600 -550 Descending Denver Center
Fri 12:49:57 PM 39.0672 -108.3558 222° Southwest 246 283 10,800 -1,350 Descending Denver Center
Fri 12:50:57 PM 39.0267 -108.4028 308° West 198 228 8,900 -1,700 Descending Denver Center
Fri 12:51:57 PM 39.0531 -108.4464 338° Northwest 122 140 7,400 -1,450 Descending Denver Center
Fri 12:52:57 PM 39.0903 -108.4661 307° West 116 133 6,000 -1,100 Descending Denver Center
Fri 12:53:57 PM 39.1106 -108.5014 307° West 133 153 5,200 -800 Descending Denver Center

Login

Don't have an account? Register now (free) for customized features, flight alerts, and more!